sensor_id;sensor_type;location;lat;lon;timestamp;pressure;altitude;pressure_sealevel;temperature;humidity
37170;BME280;23062;13.952;100.608;2023-07-16T00:03:54;1005.81;;;31.39;58.95
37170;BME280;23062;13.952;100.608;2023-07-16T00:08:28;1005.91;;;31.41;61.23
37170;BME280;23062;13.952;100.608;2023-07-16T00:13:02;1005.98;;;31.34;60.54
37170;BME280;23062;13.952;100.608;2023-07-16T00:17:35;1006.07;;;31.31;60.28
37170;BME280;23062;13.952;100.608;2023-07-16T00:22:08;1006.10;;;31.31;60.11
37170;BME280;23062;13.952;100.608;2023-07-16T00:27:07;1006.14;;;31.29;60.36
37170;BME280;23062;13.952;100.608;2023-07-16T00:31:33;1006.19;;;31.27;61.02
37170;BME280;23062;13.952;100.608;2023-07-16T00:36:01;1006.21;;;31.27;60.98
37170;BME280;23062;13.952;100.608;2023-07-16T00:40:34;1006.27;;;31.56;60.61
37170;BME280;23062;13.952;100.608;2023-07-16T00:45:03;1006.39;;;31.71;60.04
37170;BME280;23062;13.952;100.608;2023-07-16T00:49:45;1006.46;;;31.79;60.10
37170;BME280;23062;13.952;100.608;2023-07-16T00:54:13;1006.47;;;31.79;59.57
37170;BME280;23062;13.952;100.608;2023-07-16T00:58:40;1006.48;;;31.81;59.53
37170;BME280;23062;13.952;100.608;2023-07-16T01:03:12;1006.53;;;31.95;58.97
37170;BME280;23062;13.952;100.608;2023-07-16T01:08:00;1006.51;;;31.87;58.89
37170;BME280;23062;13.952;100.608;2023-07-16T01:12:28;1006.47;;;31.82;58.81
37170;BME280;23062;13.952;100.608;2023-07-16T01:17:04;1006.51;;;31.82;58.72
37170;BME280;23062;13.952;100.608;2023-07-16T01:21:44;1006.48;;;31.81;58.72
37170;BME280;23062;13.952;100.608;2023-07-16T01:26:28;1006.54;;;31.84;58.65
37170;BME280;23062;13.952;100.608;2023-07-16T01:30:52;1006.64;;;31.87;58.55
37170;BME280;23062;13.952;100.608;2023-07-16T01:35:20;1006.65;;;31.86;58.71
37170;BME280;23062;13.952;100.608;2023-07-16T01:39:46;1006.69;;;31.90;58.84
37170;BME280;23062;13.952;100.608;2023-07-16T01:44:20;1006.78;;;31.94;58.84
37170;BME280;23062;13.952;100.608;2023-07-16T01:48:48;1006.79;;;31.95;58.53
37170;BME280;23062;13.952;100.608;2023-07-16T01:53:13;1006.89;;;31.97;58.65
37170;BME280;23062;13.952;100.608;2023-07-16T01:57:45;1006.92;;;31.98;58.42
37170;BME280;23062;13.952;100.608;2023-07-16T02:02:12;1007.01;;;32.05;58.49
37170;BME280;23062;13.952;100.608;2023-07-16T02:06:42;1007.00;;;32.04;58.48
37170;BME280;23062;13.952;100.608;2023-07-16T02:11:16;1007.00;;;32.05;58.25
37170;BME280;23062;13.952;100.608;2023-07-16T02:15:44;1007.04;;;32.04;58.09
37170;BME280;23062;13.952;100.608;2023-07-16T02:20:19;1006.96;;;32.04;58.14
37170;BME280;23062;13.952;100.608;2023-07-16T02:24:47;1007.02;;;32.08;58.00
37170;BME280;23062;13.952;100.608;2023-07-16T02:29:13;1007.03;;;32.14;57.64
37170;BME280;23062;13.952;100.608;2023-07-16T02:33:39;1006.96;;;32.11;57.62
37170;BME280;23062;13.952;100.608;2023-07-16T02:38:36;1006.96;;;32.21;57.07
37170;BME280;23062;13.952;100.608;2023-07-16T02:43:04;1006.97;;;32.30;56.68
37170;BME280;23062;13.952;100.608;2023-07-16T02:47:42;1007.05;;;32.19;57.15
37170;BME280;23062;13.952;100.608;2023-07-16T02:52:14;1006.95;;;32.17;57.33
37170;BME280;23062;13.952;100.608;2023-07-16T02:56:42;1006.91;;;32.12;57.41
37170;BME280;23062;13.952;100.608;2023-07-16T03:01:13;1006.91;;;32.19;57.10
37170;BME280;23062;13.952;100.608;2023-07-16T03:05:40;1006.84;;;32.16;57.00
37170;BME280;23062;13.952;100.608;2023-07-16T03:10:10;1006.88;;;32.13;57.22
37170;BME280;23062;13.952;100.608;2023-07-16T03:14:35;1006.88;;;32.14;57.23
37170;BME280;23062;13.952;100.608;2023-07-16T03:19:09;1006.87;;;32.12;57.23
37170;BME280;23062;13.952;100.608;2023-07-16T03:23:34;1006.80;;;32.15;57.30
37170;BME280;23062;13.952;100.608;2023-07-16T03:28:09;1006.76;;;32.19;57.33
37170;BME280;23062;13.952;100.608;2023-07-16T03:32:43;1006.77;;;32.21;57.57
37170;BME280;23062;13.952;100.608;2023-07-16T03:37:17;1006.78;;;32.21;57.72
37170;BME280;23062;13.952;100.608;2023-07-16T03:41:43;1006.60;;;32.29;57.72
37170;BME280;23062;13.952;100.608;2023-07-16T03:46:12;1006.49;;;32.27;57.46
37170;BME280;23062;13.952;100.608;2023-07-16T03:50:38;1006.51;;;32.26;57.55
37170;BME280;23062;13.952;100.608;2023-07-16T03:55:10;1006.46;;;32.27;57.41
37170;BME280;23062;13.952;100.608;2023-07-16T03:59:36;1006.39;;;32.30;57.03
37170;BME280;23062;13.952;100.608;2023-07-16T04:04:13;1006.35;;;32.34;56.43
37170;BME280;23062;13.952;100.608;2023-07-16T04:09:20;1006.21;;;32.31;56.03
37170;BME280;23062;13.952;100.608;2023-07-16T04:18:38;1006.14;;;32.37;55.90
37170;BME280;23062;13.952;100.608;2023-07-16T04:23:45;1006.02;;;32.43;55.56
37170;BME280;23062;13.952;100.608;2023-07-16T04:28:12;1005.79;;;32.41;55.29
37170;BME280;23062;13.952;100.608;2023-07-16T04:32:45;1005.63;;;32.39;54.97
37170;BME280;23062;13.952;100.608;2023-07-16T04:37:24;1005.52;;;32.39;54.64
37170;BME280;23062;13.952;100.608;2023-07-16T04:41:56;1005.49;;;32.37;54.52
37170;BME280;23062;13.952;100.608;2023-07-16T04:47:37;1005.55;;;32.42;54.37
37170;BME280;23062;13.952;100.608;2023-07-16T04:52:11;1005.46;;;32.42;54.36
37170;BME280;23062;13.952;100.608;2023-07-16T04:56:43;1005.33;;;32.41;54.24
37170;BME280;23062;13.952;100.608;2023-07-16T05:01:25;1005.34;;;32.43;54.44
37170;BME280;23062;13.952;100.608;2023-07-16T05:05:57;1005.29;;;32.45;54.61
37170;BME280;23062;13.952;100.608;2023-07-16T05:10:58;1005.25;;;32.46;54.70
37170;BME280;23062;13.952;100.608;2023-07-16T05:15:26;1005.25;;;32.49;54.68
37170;BME280;23062;13.952;100.608;2023-07-16T05:19:57;1005.35;;;32.50;54.36
37170;BME280;23062;13.952;100.608;2023-07-16T05:24:23;1005.26;;;32.58;53.72
37170;BME280;23062;13.952;100.608;2023-07-16T05:28:50;1005.18;;;32.64;53.32
37170;BME280;23062;13.952;100.608;2023-07-16T05:33:25;1005.12;;;32.66;53.49
37170;BME280;23062;13.952;100.608;2023-07-16T05:38:31;1005.02;;;32.74;52.89
37170;BME280;23062;13.952;100.608;2023-07-16T05:43:07;1004.93;;;32.73;53.01
37170;BME280;23062;13.952;100.608;2023-07-16T05:47:38;1004.87;;;32.77;52.86
37170;BME280;23062;13.952;100.608;2023-07-16T05:52:12;1004.78;;;32.80;52.83
37170;BME280;23062;13.952;100.608;2023-07-16T05:56:40;1004.76;;;32.84;52.97
37170;BME280;23062;13.952;100.608;2023-07-16T06:01:07;1004.80;;;32.92;53.14
37170;BME280;23062;13.952;100.608;2023-07-16T06:05:36;1004.66;;;32.94;52.95
37170;BME280;23062;13.952;100.608;2023-07-16T06:10:13;1004.60;;;32.96;53.29
37170;BME280;23062;13.952;100.608;2023-07-16T06:15:03;1004.53;;;33.02;53.66
37170;BME280;23062;13.952;100.608;2023-07-16T06:19:58;1004.46;;;33.07;53.77
37170;BME280;23062;13.952;100.608;2023-07-16T06:24:50;1004.38;;;33.07;53.84
37170;BME280;23062;13.952;100.608;2023-07-16T06:29:23;1004.30;;;33.08;53.95
37170;BME280;23062;13.952;100.608;2023-07-16T06:33:52;1004.18;;;33.12;53.68
37170;BME280;23062;13.952;100.608;2023-07-16T06:38:24;1004.19;;;33.10;53.96
37170;BME280;23062;13.952;100.608;2023-07-16T06:42:52;1003.99;;;33.14;53.73
37170;BME280;23062;13.952;100.608;2023-07-16T06:47:27;1003.87;;;33.18;54.06
37170;BME280;23062;13.952;100.608;2023-07-16T06:51:55;1003.77;;;33.26;53.75
37170;BME280;23062;13.952;100.608;2023-07-16T06:56:22;1003.65;;;33.21;53.62
37170;BME280;23062;13.952;100.608;2023-07-16T07:00:47;1003.64;;;33.18;54.65
37170;BME280;23062;13.952;100.608;2023-07-16T07:05:13;1003.52;;;33.20;54.87
37170;BME280;23062;13.952;100.608;2023-07-16T07:09:39;1003.52;;;33.18;54.63
37170;BME280;23062;13.952;100.608;2023-07-16T07:14:06;1003.54;;;33.19;54.56
37170;BME280;23062;13.952;100.608;2023-07-16T07:18:34;1003.57;;;33.20;54.48
37170;BME280;23062;13.952;100.608;2023-07-16T07:23:08;1003.53;;;33.20;54.84
37170;BME280;23062;13.952;100.608;2023-07-16T07:27:56;1003.38;;;33.20;54.86
37170;BME280;23062;13.952;100.608;2023-07-16T07:32:25;1003.32;;;33.21;54.86
37170;BME280;23062;13.952;100.608;2023-07-16T07:37:09;1003.25;;;33.26;54.42
37170;BME280;23062;13.952;100.608;2023-07-16T07:41:36;1003.23;;;33.26;54.18
37170;BME280;23062;13.952;100.608;2023-07-16T07:46:03;1003.17;;;33.24;54.21
37170;BME280;23062;13.952;100.608;2023-07-16T07:50:35;1003.13;;;33.27;54.11
37170;BME280;23062;13.952;100.608;2023-07-16T07:55:02;1003.12;;;33.26;54.18
37170;BME280;23062;13.952;100.608;2023-07-16T07:59:29;1003.12;;;33.26;54.00
37170;BME280;23062;13.952;100.608;2023-07-16T08:04:02;1003.18;;;33.24;54.21
37170;BME280;23062;13.952;100.608;2023-07-16T08:08:47;1003.14;;;33.22;54.38
37170;BME280;23062;13.952;100.608;2023-07-16T08:13:13;1003.11;;;33.22;54.31
37170;BME280;23062;13.952;100.608;2023-07-16T08:18:02;1003.05;;;33.23;54.23
37170;BME280;23062;13.952;100.608;2023-07-16T08:22:30;1003.00;;;33.26;54.20
37170;BME280;23062;13.952;100.608;2023-07-16T08:26:57;1002.93;;;33.23;54.20
37170;BME280;23062;13.952;100.608;2023-07-16T08:32:02;1002.89;;;33.23;54.26
37170;BME280;23062;13.952;100.608;2023-07-16T08:36:29;1002.81;;;33.21;54.22
37170;BME280;23062;13.952;100.608;2023-07-16T08:40:57;1002.76;;;33.18;54.26
37170;BME280;23062;13.952;100.608;2023-07-16T08:50:04;1002.76;;;33.18;54.64
37170;BME280;23062;13.952;100.608;2023-07-16T08:54:31;1002.66;;;33.23;54.61
37170;BME280;23062;13.952;100.608;2023-07-16T08:58:58;1002.75;;;33.21;54.70
37170;BME280;23062;13.952;100.608;2023-07-16T09:03:26;1002.74;;;33.20;54.85
37170;BME280;23062;13.952;100.608;2023-07-16T09:07:54;1002.66;;;33.21;54.98
37170;BME280;23062;13.952;100.608;2023-07-16T09:12:23;1002.66;;;33.21;55.04
37170;BME280;23062;13.952;100.608;2023-07-16T09:16:53;1002.59;;;33.19;55.08
37170;BME280;23062;13.952;100.608;2023-07-16T09:21:20;1002.61;;;33.21;55.28
37170;BME280;23062;13.952;100.608;2023-07-16T09:25:49;1002.57;;;33.22;55.40
37170;BME280;23062;13.952;100.608;2023-07-16T09:30:18;1002.57;;;33.21;55.53
37170;BME280;23062;13.952;100.608;2023-07-16T09:34:53;1002.60;;;33.23;55.21
37170;BME280;23062;13.952;100.608;2023-07-16T09:39:19;1002.57;;;33.22;55.01
37170;BME280;23062;13.952;100.608;2023-07-16T09:43:51;1002.51;;;33.24;54.55
37170;BME280;23062;13.952;100.608;2023-07-16T09:48:44;1002.50;;;33.23;54.60
37170;BME280;23062;13.952;100.608;2023-07-16T09:53:17;1002.58;;;33.24;54.58
37170;BME280;23062;13.952;100.608;2023-07-16T09:59:45;1002.65;;;33.24;54.56
37170;BME280;23062;13.952;100.608;2023-07-16T10:04:20;1002.67;;;33.23;54.55
37170;BME280;23062;13.952;100.608;2023-07-16T10:09:02;1002.69;;;33.25;54.48
37170;BME280;23062;13.952;100.608;2023-07-16T10:14:05;1002.79;;;33.24;54.82
37170;BME280;23062;13.952;100.608;2023-07-16T10:20:31;1002.88;;;33.27;54.56
37170;BME280;23062;13.952;100.608;2023-07-16T10:26:59;1002.88;;;33.33;54.69
37170;BME280;23062;13.952;100.608;2023-07-16T10:32:53;1002.97;;;33.30;54.77
37170;BME280;23062;13.952;100.608;2023-07-16T10:38:41;1003.03;;;33.29;54.50
37170;BME280;23062;13.952;100.608;2023-07-16T10:43:10;1003.03;;;33.26;54.44
37170;BME280;23062;13.952;100.608;2023-07-16T10:47:50;1003.07;;;33.25;54.37
37170;BME280;23062;13.952;100.608;2023-07-16T10:52:07;1003.04;;;33.24;54.56
37170;BME280;23062;13.952;100.608;2023-07-16T10:56:38;1003.03;;;33.24;54.57
37170;BME280;23062;13.952;100.608;2023-07-16T11:01:09;1003.02;;;33.27;54.47
37170;BME280;23062;13.952;100.608;2023-07-16T11:05:36;1002.98;;;33.26;54.54
37170;BME280;23062;13.952;100.608;2023-07-16T11:10:01;1002.97;;;33.25;54.58
37170;BME280;23062;13.952;100.608;2023-07-16T11:14:29;1002.91;;;33.24;54.69
37170;BME280;23062;13.952;100.608;2023-07-16T11:18:57;1002.94;;;33.22;54.74
37170;BME280;23062;13.952;100.608;2023-07-16T11:23:33;1002.97;;;33.23;54.76
37170;BME280;23062;13.952;100.608;2023-07-16T11:28:01;1003.09;;;33.21;55.00
37170;BME280;23062;13.952;100.608;2023-07-16T11:32:36;1003.08;;;33.24;54.95
37170;BME280;23062;13.952;100.608;2023-07-16T11:37:14;1003.08;;;33.23;55.34
37170;BME280;23062;13.952;100.608;2023-07-16T11:41:55;1003.14;;;33.24;55.42
37170;BME280;23062;13.952;100.608;2023-07-16T11:46:30;1003.15;;;33.24;55.41
37170;BME280;23062;13.952;100.608;2023-07-16T11:51:07;1003.19;;;33.25;55.28
37170;BME280;23062;13.952;100.608;2023-07-16T11:55:35;1003.27;;;33.26;55.16
37170;BME280;23062;13.952;100.608;2023-07-16T12:00:04;1003.33;;;33.25;55.41
37170;BME280;23062;13.952;100.608;2023-07-16T12:04:32;1003.41;;;33.25;55.34
37170;BME280;23062;13.952;100.608;2023-07-16T12:09:04;1003.43;;;33.24;55.30
37170;BME280;23062;13.952;100.608;2023-07-16T12:13:30;1003.52;;;33.22;55.55
37170;BME280;23062;13.952;100.608;2023-07-16T12:17:59;1003.46;;;33.21;55.57
37170;BME280;23062;13.952;100.608;2023-07-16T12:22:35;1003.46;;;33.23;55.33
37170;BME280;23062;13.952;100.608;2023-07-16T12:27:12;1003.51;;;33.21;55.54
37170;BME280;23062;13.952;100.608;2023-07-16T12:31:37;1003.53;;;33.20;55.34
37170;BME280;23062;13.952;100.608;2023-07-16T12:36:04;1003.57;;;33.22;55.33
37170;BME280;23062;13.952;100.608;2023-07-16T12:40:38;1003.59;;;33.23;54.92
37170;BME280;23062;13.952;100.608;2023-07-16T12:45:11;1003.67;;;33.23;54.77
37170;BME280;23062;13.952;100.608;2023-07-16T12:49:38;1003.82;;;33.22;54.82
37170;BME280;23062;13.952;100.608;2023-07-16T12:58:39;1004.10;;;33.16;54.57
37170;BME280;23062;13.952;100.608;2023-07-16T13:03:09;1004.21;;;33.23;54.45
37170;BME280;23062;13.952;100.608;2023-07-16T13:46:59;1004.66;;;33.47;53.87
37170;BME280;23062;13.952;100.608;2023-07-16T13:51:35;1004.65;;;33.39;54.10
37170;BME280;23062;13.952;100.608;2023-07-16T13:57:06;1004.74;;;33.36;54.24
37170;BME280;23062;13.952;100.608;2023-07-16T14:01:33;1004.88;;;33.35;54.32
37170;BME280;23062;13.952;100.608;2023-07-16T14:06:01;1004.97;;;33.33;54.36
37170;BME280;23062;13.952;100.608;2023-07-16T14:12:14;1005.17;;;33.37;54.28
37170;BME280;23062;13.952;100.608;2023-07-16T14:16:50;1005.31;;;33.33;53.90
37170;BME280;23062;13.952;100.608;2023-07-16T14:21:23;1005.32;;;33.33;54.09
37170;BME280;23062;13.952;100.608;2023-07-16T14:26:04;1005.34;;;33.32;54.14
37170;BME280;23062;13.952;100.608;2023-07-16T14:30:33;1005.48;;;33.29;53.98
37170;BME280;23062;13.952;100.608;2023-07-16T14:34:59;1005.50;;;33.30;53.94
37170;BME280;23062;13.952;100.608;2023-07-16T14:39:39;1005.58;;;33.29;53.92
37170;BME280;23062;13.952;100.608;2023-07-16T14:44:07;1005.66;;;33.26;54.09
37170;BME280;23062;13.952;100.608;2023-07-16T14:48:39;1005.76;;;33.24;53.80
37170;BME280;23062;13.952;100.608;2023-07-16T14:53:09;1005.81;;;33.23;53.72
37170;BME280;23062;13.952;100.608;2023-07-16T14:57:42;1005.91;;;33.26;53.88
37170;BME280;23062;13.952;100.608;2023-07-16T15:02:12;1005.99;;;33.24;53.71
37170;BME280;23062;13.952;100.608;2023-07-16T15:06:54;1006.06;;;33.23;53.59
37170;BME280;23062;13.952;100.608;2023-07-16T15:11:36;1006.13;;;33.24;53.40
37170;BME280;23062;13.952;100.608;2023-07-16T15:19:00;1006.14;;;33.28;53.56
37170;BME280;23062;13.952;100.608;2023-07-16T15:25:23;1006.21;;;33.24;53.25
37170;BME280;23062;13.952;100.608;2023-07-16T15:29:59;1006.13;;;33.19;53.25
37170;BME280;23062;13.952;100.608;2023-07-16T15:35:00;1006.17;;;33.18;53.37
37170;BME280;23062;13.952;100.608;2023-07-16T15:39:34;1006.18;;;33.18;53.18
37170;BME280;23062;13.952;100.608;2023-07-16T15:44:03;1006.19;;;33.19;53.37
37170;BME280;23062;13.952;100.608;2023-07-16T15:48:39;1006.22;;;33.19;53.44
37170;BME280;23062;13.952;100.608;2023-07-16T15:56:45;1006.20;;;33.24;53.60
37170;BME280;23062;13.952;100.608;2023-07-16T16:06:19;1006.17;;;33.22;53.30
37170;BME280;23062;13.952;100.608;2023-07-16T16:22:38;1005.82;;;33.14;53.46
37170;BME280;23062;13.952;100.608;2023-07-16T16:27:05;1005.77;;;33.09;53.77
37170;BME280;23062;13.952;100.608;2023-07-16T16:31:31;1005.75;;;33.05;53.84
37170;BME280;23062;13.952;100.608;2023-07-16T16:36:11;1005.69;;;33.03;53.96
37170;BME280;23062;13.952;100.608;2023-07-16T16:44:59;1005.60;;;33.12;54.06
37170;BME280;23062;13.952;100.608;2023-07-16T16:49:28;1005.58;;;33.04;54.08
37170;BME280;23062;13.952;100.608;2023-07-16T16:53:56;1005.55;;;33.04;54.10
37170;BME280;23062;13.952;100.608;2023-07-16T16:58:22;1005.40;;;33.07;54.18
37170;BME280;23062;13.952;100.608;2023-07-16T17:02:56;1005.30;;;33.09;54.17
37170;BME280;23062;13.952;100.608;2023-07-16T17:07:28;1005.27;;;32.98;54.19
37170;BME280;23062;13.952;100.608;2023-07-16T17:12:01;1005.22;;;33.04;54.19
37170;BME280;23062;13.952;100.608;2023-07-16T17:16:34;1005.20;;;33.00;54.35
37170;BME280;23062;13.952;100.608;2023-07-16T17:21:00;1005.14;;;33.00;54.18
37170;BME280;23062;13.952;100.608;2023-07-16T17:25:35;1005.12;;;33.04;54.22
37170;BME280;23062;13.952;100.608;2023-07-16T17:30:05;1005.04;;;33.02;54.16
37170;BME280;23062;13.952;100.608;2023-07-16T17:34:31;1004.96;;;32.98;54.18
37170;BME280;23062;13.952;100.608;2023-07-16T17:39:03;1004.96;;;33.01;54.16
37170;BME280;23062;13.952;100.608;2023-07-16T17:43:37;1004.88;;;33.01;54.16
37170;BME280;23062;13.952;100.608;2023-07-16T17:51:43;1004.78;;;33.02;53.90
37170;BME280;23062;13.952;100.608;2023-07-16T17:56:13;1004.71;;;33.02;53.93
37170;BME280;23062;13.952;100.608;2023-07-16T18:00:41;1004.62;;;32.98;54.11
37170;BME280;23062;13.952;100.608;2023-07-16T18:05:15;1004.56;;;32.99;54.12
37170;BME280;23062;13.952;100.608;2023-07-16T18:09:41;1004.57;;;32.93;54.11
37170;BME280;23062;13.952;100.608;2023-07-16T18:14:07;1004.51;;;32.94;54.07
37170;BME280;23062;13.952;100.608;2023-07-16T18:18:37;1004.40;;;32.92;54.27
37170;BME280;23062;13.952;100.608;2023-07-16T18:23:21;1004.32;;;32.91;54.15
37170;BME280;23062;13.952;100.608;2023-07-16T18:27:53;1004.28;;;32.89;54.16
37170;BME280;23062;13.952;100.608;2023-07-16T18:32:22;1004.17;;;32.97;54.06
37170;BME280;23062;13.952;100.608;2023-07-16T18:39:09;1004.03;;;32.90;53.96
37170;BME280;23062;13.952;100.608;2023-07-16T18:44:02;1003.99;;;32.95;53.97
37170;BME280;23062;13.952;100.608;2023-07-16T19:01:47;1003.62;;;32.98;53.72
37170;BME280;23062;13.952;100.608;2023-07-16T19:06:19;1003.59;;;32.87;53.81
37170;BME280;23062;13.952;100.608;2023-07-16T19:10:45;1003.50;;;32.90;53.79
37170;BME280;23062;13.952;100.608;2023-07-16T19:15:12;1003.45;;;32.89;53.87
37170;BME280;23062;13.952;100.608;2023-07-16T19:19:39;1003.40;;;32.86;53.70
37170;BME280;23062;13.952;100.608;2023-07-16T19:24:15;1003.39;;;32.89;53.68
37170;BME280;23062;13.952;100.608;2023-07-16T19:28:43;1003.32;;;32.85;53.73
37170;BME280;23062;13.952;100.608;2023-07-16T19:33:08;1003.30;;;32.77;53.85
37170;BME280;23062;13.952;100.608;2023-07-16T19:37:47;1003.24;;;32.83;53.86
37170;BME280;23062;13.952;100.608;2023-07-16T19:48:07;1003.07;;;32.84;53.51
37170;BME280;23062;13.952;100.608;2023-07-16T19:53:35;1002.90;;;32.83;53.63
37170;BME280;23062;13.952;100.608;2023-07-16T20:04:07;1002.77;;;32.83;53.49
37170;BME280;23062;13.952;100.608;2023-07-16T20:31:06;1002.81;;;32.82;53.75
37170;BME280;23062;13.952;100.608;2023-07-16T20:40:12;1002.79;;;32.81;53.91
37170;BME280;23062;13.952;100.608;2023-07-16T20:49:03;1002.86;;;32.81;53.93
37170;BME280;23062;13.952;100.608;2023-07-16T20:53:35;1002.92;;;32.78;54.05
37170;BME280;23062;13.952;100.608;2023-07-16T20:59:06;1002.89;;;32.71;54.03
37170;BME280;23062;13.952;100.608;2023-07-16T21:04:20;1002.82;;;32.73;54.11
37170;BME280;23062;13.952;100.608;2023-07-16T21:09:08;1002.85;;;32.57;54.10
37170;BME280;23062;13.952;100.608;2023-07-16T21:13:42;1002.86;;;32.55;54.43
37170;BME280;23062;13.952;100.608;2023-07-16T21:19:17;1002.76;;;32.53;54.42
37170;BME280;23062;13.952;100.608;2023-07-16T21:23:48;1002.72;;;32.48;54.45
37170;BME280;23062;13.952;100.608;2023-07-16T21:28:15;1002.76;;;32.28;54.90
37170;BME280;23062;13.952;100.608;2023-07-16T21:32:41;1002.82;;;32.22;54.83
37170;BME280;23062;13.952;100.608;2023-07-16T21:37:11;1002.88;;;32.18;55.01
37170;BME280;23062;13.952;100.608;2023-07-16T21:41:42;1002.92;;;32.10;55.18
37170;BME280;23062;13.952;100.608;2023-07-16T21:46:12;1003.01;;;32.10;55.23
37170;BME280;23062;13.952;100.608;2023-07-16T21:50:38;1003.09;;;31.98;55.50
37170;BME280;23062;13.952;100.608;2023-07-16T21:55:05;1003.22;;;31.98;55.46
37170;BME280;23062;13.952;100.608;2023-07-16T21:59:35;1003.18;;;31.88;55.82
37170;BME280;23062;13.952;100.608;2023-07-16T22:04:12;1003.28;;;31.89;55.80
37170;BME280;23062;13.952;100.608;2023-07-16T22:08:43;1003.24;;;31.86;55.96
37170;BME280;23062;13.952;100.608;2023-07-16T22:13:10;1003.29;;;31.89;55.84
37170;BME280;23062;13.952;100.608;2023-07-16T22:17:43;1003.24;;;31.79;56.13
37170;BME280;23062;13.952;100.608;2023-07-16T22:22:14;1003.22;;;31.53;57.21
37170;BME280;23062;13.952;100.608;2023-07-16T22:26:40;1003.24;;;31.45;57.24
37170;BME280;23062;13.952;100.608;2023-07-16T22:31:14;1003.30;;;31.38;57.43
37170;BME280;23062;13.952;100.608;2023-07-16T22:35:48;1003.39;;;31.42;57.48
37170;BME280;23062;13.952;100.608;2023-07-16T22:40:21;1003.38;;;31.53;56.96
37170;BME280;23062;13.952;100.608;2023-07-16T22:44:47;1003.45;;;31.55;56.75
37170;BME280;23062;13.952;100.608;2023-07-16T22:49:20;1003.48;;;31.54;56.73
37170;BME280;23062;13.952;100.608;2023-07-16T22:53:45;1003.51;;;31.50;57.28
37170;BME280;23062;13.952;100.608;2023-07-16T22:58:18;1003.56;;;31.71;56.16
37170;BME280;23062;13.952;100.608;2023-07-16T23:02:47;1003.62;;;31.78;55.82
37170;BME280;23062;13.952;100.608;2023-07-16T23:07:22;1003.62;;;31.78;55.73
37170;BME280;23062;13.952;100.608;2023-07-16T23:11:47;1003.70;;;31.83;55.64
37170;BME280;23062;13.952;100.608;2023-07-16T23:16:17;1003.74;;;31.84;55.48
37170;BME280;23062;13.952;100.608;2023-07-16T23:20:51;1003.79;;;31.83;55.54
37170;BME280;23062;13.952;100.608;2023-07-16T23:25:21;1003.88;;;31.88;55.34
37170;BME280;23062;13.952;100.608;2023-07-16T23:29:48;1003.92;;;31.89;55.32
37170;BME280;23062;13.952;100.608;2023-07-16T23:34:20;1004.02;;;31.89;55.43
37170;BME280;23062;13.952;100.608;2023-07-16T23:38:48;1004.04;;;31.85;55.55
37170;BME280;23062;13.952;100.608;2023-07-16T23:43:15;1004.01;;;31.88;55.42
37170;BME280;23062;13.952;100.608;2023-07-16T23:47:45;1004.04;;;31.89;55.33
37170;BME280;23062;13.952;100.608;2023-07-16T23:52:12;1004.13;;;31.87;55.25
37170;BME280;23062;13.952;100.608;2023-07-16T23:56:39;1004.16;;;31.89;55.27
